createdAt,value
2018-03-03T00:00:05.147Z,87.8
2018-03-03T00:05:02.798Z,88.46
2018-03-03T00:10:03.369Z,89.59
2018-03-03T00:15:02.836Z,92.14
2018-03-03T00:20:03.353Z,93.37
2018-03-03T00:25:02.895Z,94.13
2018-03-03T00:30:03.423Z,94.6
2018-03-03T00:35:03.082Z,93.66
2018-03-03T00:40:03.707Z,92.52
2018-03-03T00:45:03.252Z,91.49
2018-03-03T00:50:03.714Z,90.92
2018-03-03T00:55:03.248Z,90.73
2018-03-03T01:00:03.693Z,90.16
2018-03-03T01:05:03.365Z,89.78
2018-03-03T01:10:02.912Z,88.84
2018-03-03T01:15:03.419Z,88.28
2018-03-03T01:20:02.971Z,87.43
2018-03-03T01:25:03.485Z,86.95
2018-03-03T01:30:02.960Z,86.76
2018-03-03T01:35:03.154Z,86.48
2018-03-03T01:40:03.683Z,86.67
2018-03-03T01:45:03.224Z,86.86
2018-03-03T01:50:03.702Z,87.14
2018-03-03T01:55:03.126Z,87.52
2018-03-03T02:00:03.565Z,88.46
2018-03-03T02:05:03.056Z,89.69
2018-03-03T02:10:03.512Z,91.39
2018-03-03T02:15:03.009Z,91.01
2018-03-03T02:20:03.490Z,90.82
2018-03-03T02:25:03.000Z,92.43
2018-03-03T02:30:03.563Z,93.18
2018-03-03T02:35:03.143Z,97.34
2018-03-03T02:40:03.664Z,98.47
2018-03-03T02:45:03.130Z,98.85
2018-03-03T02:50:03.648Z,99.99
2018-03-03T02:55:03.074Z,99.99
2018-03-03T03:00:03.595Z,99.99
2018-03-03T03:05:03.077Z,99.99
2018-03-03T03:10:03.619Z,99.99
2018-03-03T03:15:03.161Z,99.99
2018-03-03T03:20:03.694Z,99.99
2018-03-03T03:25:03.103Z,98.99
2018-03-03T03:30:03.574Z,97.19
2018-03-03T03:35:03.024Z,93.04
2018-03-03T03:40:03.570Z,91.82
2018-03-03T03:45:03.032Z,88.98
2018-03-03T03:50:03.520Z,89.45
2018-03-03T03:55:03.003Z,88.89
2018-03-03T04:00:03.813Z,88.51
2018-03-03T04:05:03.316Z,89.64
2018-03-03T04:10:02.841Z,89.08
2018-03-03T04:15:03.415Z,91.35
2018-03-03T04:20:02.877Z,90.78
2018-03-03T04:25:03.334Z,93.13
2018-03-03T04:30:02.861Z,94.08
2018-03-03T04:35:03.300Z,93.51
2018-03-03T04:40:02.906Z,94.27
2018-03-03T04:45:03.379Z,95.12
2018-03-03T04:50:02.975Z,90.21
2018-03-03T04:55:03.376Z,91.35
2018-03-03T05:00:02.843Z,85.4
2018-03-03T05:05:03.330Z,84.45
2018-03-03T05:10:02.866Z,83.09
2018-03-03T05:15:03.280Z,84.13
2018-03-03T05:20:03.696Z,84.32
2018-03-03T05:25:03.225Z,84.03
2018-03-03T05:30:03.295Z,84.32
2018-03-03T05:35:02.801Z,82.81
2018-03-03T05:40:03.316Z,84.6
2018-03-03T05:45:02.848Z,84.32
2018-03-03T05:50:03.325Z,84.41
2018-03-03T05:55:03.768Z,84.79
2018-03-03T06:00:03.270Z,86.68
2018-03-03T06:05:03.774Z,90.55
2018-03-03T06:10:03.248Z,93.23
2018-03-03T06:15:03.708Z,94.18
2018-03-03T06:20:03.213Z,95.31
2018-03-03T06:25:03.731Z,98.99
2018-03-03T06:30:03.205Z,99.18
2018-03-03T06:35:03.700Z,99.99
2018-03-03T06:40:03.193Z,99.99
2018-03-03T06:45:03.680Z,99.99
2018-03-03T06:50:03.197Z,99.99
2018-03-03T06:55:03.897Z,99.99
2018-03-03T07:00:03.407Z,99.99
2018-03-03T07:05:02.812Z,99.99
2018-03-03T07:10:03.373Z,99.99
2018-03-03T07:15:02.870Z,99.99
2018-03-03T07:20:03.289Z,99.99
2018-03-03T07:25:02.771Z,99.99
2018-03-03T07:30:03.240Z,99.99
2018-03-03T07:35:02.884Z,99.99
2018-03-03T07:40:03.402Z,99.99
2018-03-03T07:45:02.933Z,99.99
2018-03-03T07:50:03.376Z,99.99
2018-03-03T07:55:02.834Z,99.99
2018-03-03T08:00:03.592Z,99.99
2018-03-03T08:05:03.011Z,99.99
2018-03-03T08:10:03.627Z,99.99
2018-03-03T08:15:03.125Z,99.99
2018-03-03T08:20:03.634Z,99.99
2018-03-03T08:25:03.089Z,99.99
2018-03-03T08:30:03.680Z,99.99
2018-03-03T08:35:03.173Z,99.99
2018-03-03T08:40:03.681Z,99.99
2018-03-03T08:45:03.219Z,99.99
2018-03-03T08:50:03.719Z,99.99
2018-03-03T08:55:03.138Z,99.99
2018-03-03T09:00:03.628Z,99.99
2018-03-03T09:05:03.105Z,99.99
2018-03-03T09:10:03.729Z,99.99
2018-03-03T09:15:03.204Z,99.99
2018-03-03T09:20:03.720Z,99.99
2018-03-03T09:25:03.148Z,99.99
2018-03-03T09:30:03.680Z,99.99
2018-03-03T09:35:03.254Z,99.99
2018-03-03T09:40:02.795Z,99.99
2018-03-03T09:45:03.261Z,99.99
2018-03-03T09:50:03.752Z,99.99
2018-03-03T09:55:03.166Z,99.99
2018-03-03T10:00:03.676Z,99.99
2018-03-03T10:05:03.191Z,99.99
2018-03-03T10:10:03.685Z,99.99
2018-03-03T10:15:03.333Z,99.99
2018-03-03T10:20:02.833Z,99.99
2018-03-03T10:25:03.324Z,99.99
2018-03-03T10:30:02.814Z,99.99
2018-03-03T10:35:03.301Z,99.99
2018-03-03T10:40:02.818Z,99.99
2018-03-03T10:45:03.304Z,99.99
2018-03-03T10:50:02.912Z,99.99
2018-03-03T10:55:03.293Z,99.99
2018-03-03T11:00:02.807Z,99.99
2018-03-03T11:05:03.328Z,99.99
2018-03-03T11:10:02.925Z,99.99
2018-03-03T11:15:03.419Z,99.99
2018-03-03T11:20:02.888Z,99.99
2018-03-03T11:25:03.392Z,99.99
2018-03-03T11:30:02.895Z,99.99
2018-03-03T11:35:03.371Z,99.99
2018-03-03T11:40:02.915Z,99.99
2018-03-03T11:45:03.352Z,99.99
2018-03-03T11:50:02.878Z,99.99
2018-03-03T11:55:03.413Z,99.99
2018-03-03T12:00:02.822Z,99.99
2018-03-03T12:05:03.238Z,99.99
2018-03-03T12:10:02.864Z,99.99
2018-03-03T12:15:03.367Z,99.99
2018-03-03T12:20:02.886Z,99.99
2018-03-03T12:25:03.408Z,99.99
2018-03-03T12:30:02.943Z,99.99
2018-03-03T12:35:03.395Z,99.99
2018-03-03T12:40:02.872Z,99.99
2018-03-03T12:45:03.361Z,99.99
2018-03-03T12:50:02.917Z,99.99
2018-03-03T12:55:03.389Z,99.99
2018-03-03T13:00:02.921Z,99.99
2018-03-03T13:05:03.447Z,99.99
2018-03-03T13:10:03.041Z,99.99
2018-03-03T13:15:03.510Z,99.99
2018-03-03T13:20:03.015Z,99.99
2018-03-03T13:25:03.514Z,99.99
2018-03-03T13:30:03.002Z,99.99
2018-03-03T13:35:03.429Z,99.99
2018-03-03T13:40:02.892Z,99.66
2018-03-03T13:45:03.391Z,99.66
2018-03-03T13:50:02.937Z,99.99
2018-03-03T13:55:03.429Z,99.99
2018-03-03T14:00:02.825Z,99.38
2018-03-03T14:05:03.288Z,97.67
2018-03-03T14:10:02.828Z,97.11
2018-03-03T14:15:03.304Z,98.14
2018-03-03T14:20:02.804Z,97.67
2018-03-03T14:25:03.311Z,97.58
2018-03-03T14:30:02.816Z,96.07
2018-03-03T14:35:03.329Z,96.16
2018-03-03T14:40:02.908Z,97.3
2018-03-03T14:45:03.378Z,97.01
2018-03-03T14:50:02.944Z,97.2
2018-03-03T14:55:03.430Z,97.96
2018-03-03T15:00:02.900Z,99.57
2018-03-03T15:05:03.402Z,99.28
2018-03-03T15:10:02.978Z,99.38
2018-03-03T15:15:03.428Z,98.71
2018-03-03T15:20:03.272Z,99.38
2018-03-03T15:25:03.786Z,98.9
2018-03-03T15:30:03.304Z,99.76
2018-03-03T15:35:02.793Z,99.99
2018-03-03T15:40:03.325Z,99.99
2018-03-03T15:45:03.978Z,99.99
2018-03-03T15:50:03.554Z,99.99
2018-03-03T15:55:03.063Z,99.99
2018-03-03T16:00:03.576Z,99.99
2018-03-03T16:05:03.194Z,99.99
2018-03-03T16:10:03.764Z,99.99
2018-03-03T16:15:03.265Z,99.99
2018-03-03T16:20:02.831Z,99.99
2018-03-03T16:25:03.333Z,99.99
2018-03-03T16:30:02.784Z,99.99
2018-03-03T16:35:03.311Z,99.99
2018-03-03T16:40:02.873Z,99.99
2018-03-03T16:45:03.651Z,99.99
2018-03-03T16:50:03.150Z,99.99
2018-03-03T16:55:03.698Z,99.61
2018-03-03T17:00:03.179Z,98.85
2018-03-03T17:05:03.742Z,99.99
2018-03-03T17:10:03.350Z,98.1
2018-03-03T17:15:02.945Z,98.85
2018-03-03T17:20:03.720Z,95.92
2018-03-03T17:25:03.310Z,94.98
2018-03-03T17:30:03.731Z,95.78
2018-03-03T17:35:03.252Z,95.4
2018-03-03T17:40:02.926Z,94.84
2018-03-03T17:45:03.899Z,93.23
2018-03-03T17:50:03.465Z,92.94
2018-03-03T17:55:02.923Z,92.1
2018-03-03T18:00:03.448Z,92.85
2018-03-03T18:05:02.955Z,91.82
2018-03-03T18:10:03.502Z,91.34
2018-03-03T18:15:02.987Z,91.53
2018-03-03T18:20:03.551Z,91.53
2018-03-03T18:25:03.056Z,90.4
2018-03-03T18:30:03.586Z,91.15
2018-03-03T18:35:03.111Z,91.91
2018-03-03T18:40:03.707Z,88.7
2018-03-03T18:45:03.172Z,88.79
2018-03-03T18:50:03.642Z,88.7
2018-03-03T18:55:03.108Z,87.09
2018-03-03T19:00:03.625Z,87.37
2018-03-03T19:05:03.172Z,87.56
2018-03-03T19:10:03.794Z,87.47
2018-03-03T19:15:03.437Z,85.96
2018-03-03T19:20:03.017Z,85.96
2018-03-03T19:25:03.575Z,85.49
2018-03-03T19:30:03.127Z,84.26
2018-03-03T19:35:03.608Z,85.58
2018-03-03T19:40:03.130Z,85.35
2018-03-03T19:45:03.608Z,84.12
2018-03-03T19:50:03.348Z,83.65
2018-03-03T19:55:02.868Z,83.46
2018-03-03T20:00:03.337Z,84.22
2018-03-03T20:05:02.906Z,83.74
2018-03-03T20:10:03.549Z,83.08
2018-03-03T20:15:03.173Z,82.89
2018-03-03T20:20:03.652Z,82.89
2018-03-03T20:25:03.227Z,81.85
2018-03-03T20:30:03.803Z,80.34
2018-03-03T20:35:03.438Z,80.82
2018-03-03T20:40:02.998Z,80.63
2018-03-03T20:45:03.519Z,80.44
2018-03-03T20:50:03.088Z,79.49
2018-03-03T20:55:03.787Z,79.11
2018-03-03T21:00:03.282Z,79.02
2018-03-03T21:05:03.801Z,77.98
2018-03-03T21:10:03.392Z,77.89
2018-03-03T21:15:02.992Z,77.32
2018-03-03T21:20:03.625Z,76.38
2018-03-03T21:25:03.098Z,76.38
2018-03-03T21:30:03.621Z,76.47
2018-03-03T21:35:03.144Z,76.38
2018-03-03T21:40:03.741Z,75.71
2018-03-03T21:45:03.257Z,75.34
2018-03-03T21:50:03.775Z,74.87
2018-03-03T21:55:03.346Z,75.34
2018-03-03T22:00:04.126Z,75.43
2018-03-03T22:05:03.641Z,73.64
2018-03-03T22:10:03.227Z,74.77
2018-03-03T22:15:04.041Z,73.64
2018-03-03T22:20:03.560Z,73.83
2018-03-03T22:25:03.136Z,73.45
2018-03-03T22:30:03.691Z,73.36
2018-03-03T22:35:03.183Z,73.45
2018-03-03T22:40:03.689Z,73.36
2018-03-03T22:45:03.131Z,73.36
2018-03-03T22:50:03.662Z,72.6
2018-03-03T22:55:03.374Z,72.98
2018-03-03T23:00:02.890Z,72.79
2018-03-03T23:05:03.389Z,71.94
2018-03-03T23:10:02.980Z,71.94
2018-03-03T23:15:03.488Z,72.03
2018-03-03T23:20:03.121Z,71.66
2018-03-03T23:25:03.617Z,71.75
2018-03-03T23:30:03.144Z,71.47
2018-03-03T23:35:03.628Z,69.96
2018-03-03T23:40:03.494Z,70.24
2018-03-03T23:45:02.926Z,69.86
2018-03-03T23:50:03.447Z,69.67
2018-03-03T23:55:02.958Z,69.11
